Pictou, Canada
Current Conditions -  °F | °C
As of 2:00 PM on Sunday 25 Jan 2015 (Local Time) from CYYG Reporting Station
Broken Clouds Broken Clouds  
Wind Chill: -5°   Ceiling: 2000
Heat Index:   Visibility: 15mi
Dew Point: -3°   Wind: 13mph
Humidity: 80%   Direction: 240°WSW
Pressure: 29.21"   Gusts: 22mph
Location:  45.67°N, 62.7°W
Report Text: CYYG 251800Z 24011G19KT 15SM BKN020 00/M03 A2921 RMK SC7 SLP893
Loading
Personal Weather Stations






























Interactive Weather Map New forecast layout! Learn more

10-Day Weather Forecast

Advertisements
Track Severe Weather on mobile